createdAt,value
2023-02-27T00:04:09.946Z,76685.63
2023-02-27T00:14:16.758Z,76734.22
2023-02-27T00:24:22.659Z,76764.56
2023-02-27T00:34:27.727Z,76738.25
2023-02-27T00:44:32.458Z,76758.50
2023-02-27T00:54:41.975Z,76762.56
2023-02-27T01:04:46.559Z,76772.69
2023-02-27T01:14:53.305Z,76790.91
2023-02-27T01:24:57.137Z,76799.00
2023-02-27T01:34:59.944Z,76805.06
2023-02-27T01:45:11.585Z,76805.06
2023-02-27T01:55:20.308Z,76817.22
2023-02-27T02:05:24.141Z,76849.59
2023-02-27T02:15:35.352Z,76835.44
2023-02-27T02:26:14.189Z,76839.47
2023-02-27T02:36:55.453Z,76849.59
2023-02-27T02:47:19.616Z,76863.78
2023-02-27T02:57:51.735Z,76851.63
2023-02-27T03:08:06.200Z,76875.91
2023-02-27T03:18:18.695Z,76879.97
2023-02-27T03:28:33.067Z,76906.28
2023-02-27T03:38:40.933Z,76910.34
2023-02-27T03:48:45.718Z,76920.47
2023-02-27T03:58:51.289Z,76918.44
2023-02-27T04:09:10.159Z,76944.75
2023-02-27T04:19:44.872Z,76928.56
2023-02-27T04:30:01.893Z,76924.50
2023-02-27T04:40:11.206Z,76936.66
2023-02-27T04:50:21.038Z,76932.59
2023-02-27T05:00:28.058Z,76928.56
2023-02-27T05:10:51.540Z,76932.59
2023-02-27T05:21:19.379Z,76960.94
2023-02-27T05:31:41.679Z,76997.38
2023-02-27T05:42:03.772Z,77021.69
2023-02-27T05:52:13.150Z,77017.63
2023-02-27T06:02:18.367Z,77027.75
2023-02-27T06:12:26.140Z,77060.13
2023-02-27T06:22:29.634Z,77041.91
2023-02-27T06:32:36.059Z,77050.03
2023-02-27T06:42:45.423Z,77045.97
2023-02-27T06:52:53.439Z,77054.06
2023-02-27T07:02:57.909Z,77090.50
2023-02-27T07:13:01.374Z,77086.47
2023-02-27T07:23:06.384Z,76896.16
2023-02-27T07:33:09.247Z,76766.59
2023-02-27T07:43:14.020Z,76661.34
2023-02-27T07:53:17.414Z,76594.53
2023-02-27T08:03:26.837Z,76610.72
2023-02-27T08:13:58.976Z,76600.59
2023-02-27T08:23:55.809Z,76681.59
2023-02-27T08:34:09.116Z,76612.75
2023-02-27T08:44:15.142Z,76637.03
2023-02-27T08:54:19.852Z,76711.94
2023-02-27T09:04:24.390Z,76746.34
2023-02-27T09:14:26.468Z,76780.78
2023-02-27T09:24:30.820Z,76867.81
2023-02-27T09:34:37.803Z,77009.53
2023-02-27T09:44:47.303Z,77045.97
2023-02-27T09:54:54.546Z,77019.66
2023-02-27T10:05:21.024Z,76997.38
2023-02-27T10:15:33.738Z,76997.38
2023-02-27T10:25:43.976Z,77082.41
2023-02-27T10:35:46.368Z,77066.22
2023-02-27T10:45:53.204Z,77027.75
2023-02-27T10:56:03.437Z,77066.22
2023-02-27T11:06:26.199Z,77131.00
2023-02-27T11:16:32.735Z,77072.28
2023-02-27T11:26:56.777Z,76985.25
2023-02-27T11:37:08.926Z,77054.06
2023-02-27T11:47:17.347Z,77070.25
2023-02-27T11:57:27.565Z,77114.81
2023-02-27T12:07:47.070Z,77137.06
2023-02-27T12:18:12.582Z,77098.59
2023-02-27T12:28:42.662Z,77092.53
2023-02-27T12:38:47.482Z,77092.53
2023-02-27T12:49:11.732Z,77118.84
2023-02-27T12:59:32.416Z,77141.13
2023-02-27T13:10:04.382Z,77175.53
2023-02-27T13:20:24.484Z,77226.16
2023-02-27T13:31:13.845Z,77272.72
2023-02-27T13:41:21.768Z,77262.59
2023-02-27T13:51:36.235Z,77274.75
2023-02-27T14:01:41.173Z,77224.13
2023-02-27T14:11:55.242Z,77220.06
2023-02-27T14:22:10.833Z,77197.81
2023-02-27T14:32:29.447Z,77197.81
2023-02-27T14:43:01.187Z,77244.38
2023-02-27T14:53:05.197Z,77236.28
2023-02-27T15:03:33.227Z,77246.41
2023-02-27T15:13:40.545Z,77264.63
2023-02-27T15:23:42.811Z,77295.00
2023-02-27T15:33:48.495Z,77323.34
2023-02-27T15:43:55.593Z,77333.44
2023-02-27T15:53:59.952Z,77363.81
2023-02-27T16:04:20.607Z,77357.75
2023-02-27T16:14:47.871Z,77386.09
2023-02-27T16:24:50.809Z,77400.28
2023-02-27T16:35:01.550Z,77450.88
2023-02-27T16:45:07.222Z,77456.97
2023-02-27T16:55:14.042Z,77483.28
2023-02-27T17:05:18.753Z,77479.22
2023-02-27T17:15:27.478Z,77450.88
2023-02-27T17:25:30.560Z,77477.22
2023-02-27T17:35:35.170Z,77487.31
2023-02-27T17:45:40.360Z,77467.09
2023-02-27T17:55:47.166Z,77406.34
2023-02-27T18:05:51.019Z,77454.94
2023-02-27T18:15:56.520Z,77517.69
2023-02-27T18:26:01.260Z,77487.31
2023-02-27T18:36:06.244Z,77515.66
2023-02-27T18:46:09.495Z,77535.91
2023-02-27T18:56:18.457Z,77529.84
2023-02-27T19:06:23.261Z,77503.53
2023-02-27T19:16:28.631Z,77515.66
2023-02-27T19:26:33.228Z,77509.59
2023-02-27T19:36:35.516Z,77531.88
2023-02-27T19:46:41.389Z,77529.84
2023-02-27T19:56:50.859Z,77558.19
2023-02-27T20:06:53.895Z,77572.38
2023-02-27T20:17:00.917Z,77586.53
2023-02-27T20:27:05.344Z,77564.25
2023-02-27T20:37:12.332Z,77600.72
2023-02-27T20:47:14.551Z,77600.72
2023-02-27T20:57:18.770Z,77625.00
2023-02-27T21:07:23.273Z,77610.84
2023-02-27T21:17:27.683Z,77612.88
2023-02-27T21:27:33.583Z,77659.44
2023-02-27T21:37:38.548Z,77679.69
2023-02-27T21:47:43.503Z,77649.31
2023-02-27T21:57:47.827Z,77679.69
2023-02-27T22:07:50.058Z,77697.91
2023-02-27T22:17:54.812Z,77701.94
2023-02-27T22:27:57.043Z,77706.00
2023-02-27T22:37:59.100Z,77750.53
2023-02-27T22:48:01.183Z,77756.63
2023-02-27T22:58:06.006Z,77774.84
2023-02-27T23:08:10.435Z,77799.16
2023-02-27T23:18:12.797Z,77795.09
2023-02-27T23:28:16.554Z,77813.31
2023-02-27T23:38:23.323Z,77815.34
2023-02-27T23:48:28.954Z,77827.50
2023-02-27T23:58:31.072Z,77825.47
